sensor_id;sensor_type;location;lat;lon;timestamp;P1;durP1;ratioP1;P2;durP2;ratioP2
17790;SDS011;9019;48.132;-1.210;2023-11-21T00:02:25;7.47;;;2.23;;
17790;SDS011;9019;48.132;-1.210;2023-11-21T00:04:53;8.87;;;2.23;;
17790;SDS011;9019;48.132;-1.210;2023-11-21T00:07:20;12.67;;;2.77;;
17790;SDS011;9019;48.132;-1.210;2023-11-21T00:09:49;11.60;;;2.77;;
17790;SDS011;9019;48.132;-1.210;2023-11-21T00:12:16;7.63;;;2.57;;
17790;SDS011;9019;48.132;-1.210;2023-11-21T00:14:43;9.60;;;2.43;;
17790;SDS011;9019;48.132;-1.210;2023-11-21T00:17:10;14.10;;;2.97;;
17790;SDS011;9019;48.132;-1.210;2023-11-21T00:19:38;13.03;;;2.70;;
17790;SDS011;9019;48.132;-1.210;2023-11-21T00:22:05;10.33;;;2.47;;
17790;SDS011;9019;48.132;-1.210;2023-11-21T00:24:32;8.40;;;2.20;;
17790;SDS011;9019;48.132;-1.210;2023-11-21T00:27:01;8.20;;;2.20;;
17790;SDS011;9019;48.132;-1.210;2023-11-21T00:29:28;13.67;;;2.40;;
17790;SDS011;9019;48.132;-1.210;2023-11-21T00:31:55;11.97;;;2.23;;
17790;SDS011;9019;48.132;-1.210;2023-11-21T00:34:23;9.30;;;2.20;;
17790;SDS011;9019;48.132;-1.210;2023-11-21T00:36:50;12.33;;;2.60;;
17790;SDS011;9019;48.132;-1.210;2023-11-21T00:39:17;11.83;;;2.20;;
17790;SDS011;9019;48.132;-1.210;2023-11-21T00:41:44;11.07;;;2.17;;
17790;SDS011;9019;48.132;-1.210;2023-11-21T00:44:13;12.73;;;2.00;;
17790;SDS011;9019;48.132;-1.210;2023-11-21T00:46:41;11.07;;;2.00;;
17790;SDS011;9019;48.132;-1.210;2023-11-21T00:49:08;7.10;;;1.80;;
17790;SDS011;9019;48.132;-1.210;2023-11-21T00:51:35;12.60;;;1.87;;
17790;SDS011;9019;48.132;-1.210;2023-11-21T00:54:02;8.47;;;2.17;;
17790;SDS011;9019;48.132;-1.210;2023-11-21T00:56:30;7.00;;;1.63;;
17790;SDS011;9019;48.132;-1.210;2023-11-21T00:58:57;9.53;;;1.57;;
17790;SDS011;9019;48.132;-1.210;2023-11-21T01:01:25;7.77;;;1.60;;
17790;SDS011;9019;48.132;-1.210;2023-11-21T01:03:53;12.53;;;1.83;;
17790;SDS011;9019;48.132;-1.210;2023-11-21T01:06:20;11.23;;;1.70;;
17790;SDS011;9019;48.132;-1.210;2023-11-21T01:08:47;8.87;;;1.70;;
17790;SDS011;9019;48.132;-1.210;2023-11-21T01:11:14;7.33;;;1.43;;
17790;SDS011;9019;48.132;-1.210;2023-11-21T01:13:42;9.70;;;2.07;;
17790;SDS011;9019;48.132;-1.210;2023-11-21T01:16:10;5.60;;;1.30;;
17790;SDS011;9019;48.132;-1.210;2023-11-21T01:18:38;6.67;;;1.57;;
17790;SDS011;9019;48.132;-1.210;2023-11-21T01:21:05;10.10;;;1.53;;
17790;SDS011;9019;48.132;-1.210;2023-11-21T01:23:34;7.77;;;1.47;;
17790;SDS011;9019;48.132;-1.210;2023-11-21T01:26:01;9.37;;;1.70;;
17790;SDS011;9019;48.132;-1.210;2023-11-21T01:28:28;8.30;;;1.30;;
17790;SDS011;9019;48.132;-1.210;2023-11-21T01:30:56;9.03;;;1.70;;
17790;SDS011;9019;48.132;-1.210;2023-11-21T01:33:23;10.33;;;1.80;;
17790;SDS011;9019;48.132;-1.210;2023-11-21T01:35:52;7.30;;;1.03;;
17790;SDS011;9019;48.132;-1.210;2023-11-21T01:38:20;6.47;;;1.30;;
17790;SDS011;9019;48.132;-1.210;2023-11-21T01:40:48;13.77;;;1.97;;
17790;SDS011;9019;48.132;-1.210;2023-11-21T01:43:15;13.17;;;2.20;;
17790;SDS011;9019;48.132;-1.210;2023-11-21T01:45:42;9.83;;;1.60;;
17790;SDS011;9019;48.132;-1.210;2023-11-21T01:48:10;11.37;;;1.60;;
17790;SDS011;9019;48.132;-1.210;2023-11-21T01:50:38;5.43;;;1.17;;
17790;SDS011;9019;48.132;-1.210;2023-11-21T01:53:07;6.77;;;1.27;;
17790;SDS011;9019;48.132;-1.210;2023-11-21T01:55:34;5.03;;;1.10;;
17790;SDS011;9019;48.132;-1.210;2023-11-21T01:58:01;5.10;;;1.07;;
17790;SDS011;9019;48.132;-1.210;2023-11-21T02:00:28;5.37;;;1.10;;
17790;SDS011;9019;48.132;-1.210;2023-11-21T02:02:56;6.33;;;0.80;;
17790;SDS011;9019;48.132;-1.210;2023-11-21T02:05:24;3.40;;;0.97;;
17790;SDS011;9019;48.132;-1.210;2023-11-21T02:07:52;3.97;;;0.87;;
17790;SDS011;9019;48.132;-1.210;2023-11-21T02:10:20;2.90;;;0.80;;
17790;SDS011;9019;48.132;-1.210;2023-11-21T02:12:48;2.77;;;0.83;;
17790;SDS011;9019;48.132;-1.210;2023-11-21T02:15:16;3.67;;;1.07;;
17790;SDS011;9019;48.132;-1.210;2023-11-21T02:17:45;4.17;;;0.87;;
17790;SDS011;9019;48.132;-1.210;2023-11-21T02:20:16;1.63;;;0.77;;
17790;SDS011;9019;48.132;-1.210;2023-11-21T02:22:43;4.70;;;0.73;;
17790;SDS011;9019;48.132;-1.210;2023-11-21T02:25:12;1.87;;;0.60;;
17790;SDS011;9019;48.132;-1.210;2023-11-21T02:27:40;6.17;;;1.03;;
17790;SDS011;9019;48.132;-1.210;2023-11-21T02:30:08;3.87;;;0.80;;
17790;SDS011;9019;48.132;-1.210;2023-11-21T02:32:38;7.37;;;1.20;;
17790;SDS011;9019;48.132;-1.210;2023-11-21T02:35:07;5.20;;;1.10;;
17790;SDS011;9019;48.132;-1.210;2023-11-21T02:37:37;6.10;;;0.93;;
17790;SDS011;9019;48.132;-1.210;2023-11-21T02:40:06;3.10;;;0.70;;
17790;SDS011;9019;48.132;-1.210;2023-11-21T02:42:36;2.90;;;0.70;;
17790;SDS011;9019;48.132;-1.210;2023-11-21T02:45:03;4.83;;;1.00;;
17790;SDS011;9019;48.132;-1.210;2023-11-21T02:47:31;5.30;;;0.90;;
17790;SDS011;9019;48.132;-1.210;2023-11-21T02:49:58;4.10;;;0.90;;
17790;SDS011;9019;48.132;-1.210;2023-11-21T02:52:25;3.07;;;0.67;;
17790;SDS011;9019;48.132;-1.210;2023-11-21T02:54:53;4.17;;;0.73;;
17790;SDS011;9019;48.132;-1.210;2023-11-21T02:57:20;4.40;;;0.83;;
17790;SDS011;9019;48.132;-1.210;2023-11-21T02:59:48;3.23;;;0.60;;
17790;SDS011;9019;48.132;-1.210;2023-11-21T03:02:16;3.33;;;0.57;;
17790;SDS011;9019;48.132;-1.210;2023-11-21T03:04:43;4.63;;;0.57;;
17790;SDS011;9019;48.132;-1.210;2023-11-21T03:07:10;2.73;;;0.50;;
17790;SDS011;9019;48.132;-1.210;2023-11-21T03:09:37;3.10;;;0.40;;
17790;SDS011;9019;48.132;-1.210;2023-11-21T03:12:05;3.20;;;0.60;;
17790;SDS011;9019;48.132;-1.210;2023-11-21T03:14:32;4.20;;;0.50;;
17790;SDS011;9019;48.132;-1.210;2023-11-21T03:17:00;0.90;;;0.20;;
17790;SDS011;9019;48.132;-1.210;2023-11-21T03:19:30;3.80;;;0.70;;
17790;SDS011;9019;48.132;-1.210;2023-11-21T03:21:57;2.27;;;0.50;;
17790;SDS011;9019;48.132;-1.210;2023-11-21T03:24:24;4.20;;;1.00;;
17790;SDS011;9019;48.132;-1.210;2023-11-21T03:26:52;3.40;;;0.60;;
17790;SDS011;9019;48.132;-1.210;2023-11-21T03:29:19;3.53;;;0.70;;
17790;SDS011;9019;48.132;-1.210;2023-11-21T03:31:46;3.40;;;0.50;;
17790;SDS011;9019;48.132;-1.210;2023-11-21T03:34:19;4.27;;;0.60;;
17790;SDS011;9019;48.132;-1.210;2023-11-21T03:36:47;2.80;;;0.50;;
17790;SDS011;9019;48.132;-1.210;2023-11-21T03:39:14;6.03;;;1.00;;
17790;SDS011;9019;48.132;-1.210;2023-11-21T03:41:41;2.67;;;0.70;;
17790;SDS011;9019;48.132;-1.210;2023-11-21T03:44:08;3.90;;;0.60;;
17790;SDS011;9019;48.132;-1.210;2023-11-21T03:46:35;1.70;;;0.73;;
17790;SDS011;9019;48.132;-1.210;2023-11-21T03:49:03;2.13;;;0.87;;
17790;SDS011;9019;48.132;-1.210;2023-11-21T03:51:31;5.07;;;0.70;;
17790;SDS011;9019;48.132;-1.210;2023-11-21T03:53:59;2.43;;;0.73;;
17790;SDS011;9019;48.132;-1.210;2023-11-21T03:56:26;3.23;;;0.67;;
17790;SDS011;9019;48.132;-1.210;2023-11-21T03:58:53;4.53;;;1.03;;
17790;SDS011;9019;48.132;-1.210;2023-11-21T04:01:20;5.87;;;1.00;;
17790;SDS011;9019;48.132;-1.210;2023-11-21T04:03:48;4.10;;;0.80;;
17790;SDS011;9019;48.132;-1.210;2023-11-21T04:06:15;4.90;;;0.90;;
17790;SDS011;9019;48.132;-1.210;2023-11-21T04:08:44;4.93;;;0.90;;
17790;SDS011;9019;48.132;-1.210;2023-11-21T04:11:12;2.20;;;0.90;;
17790;SDS011;9019;48.132;-1.210;2023-11-21T04:13:40;3.07;;;0.90;;
17790;SDS011;9019;48.132;-1.210;2023-11-21T04:16:08;3.67;;;0.93;;
17790;SDS011;9019;48.132;-1.210;2023-11-21T04:18:36;3.67;;;0.80;;
17790;SDS011;9019;48.132;-1.210;2023-11-21T04:21:03;4.40;;;1.00;;
17790;SDS011;9019;48.132;-1.210;2023-11-21T04:23:31;4.73;;;0.60;;
17790;SDS011;9019;48.132;-1.210;2023-11-21T04:25:59;3.00;;;0.53;;
17790;SDS011;9019;48.132;-1.210;2023-11-21T04:28:27;2.20;;;0.60;;
17790;SDS011;9019;48.132;-1.210;2023-11-21T04:30:54;3.50;;;0.87;;
17790;SDS011;9019;48.132;-1.210;2023-11-21T04:33:21;5.47;;;0.93;;
17790;SDS011;9019;48.132;-1.210;2023-11-21T04:35:49;3.63;;;0.77;;
17790;SDS011;9019;48.132;-1.210;2023-11-21T04:38:17;4.67;;;0.97;;
17790;SDS011;9019;48.132;-1.210;2023-11-21T04:40:45;4.23;;;0.70;;
17790;SDS011;9019;48.132;-1.210;2023-11-21T04:43:13;5.00;;;1.10;;
17790;SDS011;9019;48.132;-1.210;2023-11-21T04:45:41;3.60;;;0.70;;
17790;SDS011;9019;48.132;-1.210;2023-11-21T04:48:08;4.33;;;0.90;;
17790;SDS011;9019;48.132;-1.210;2023-11-21T04:50:35;2.93;;;0.90;;
17790;SDS011;9019;48.132;-1.210;2023-11-21T04:53:02;2.90;;;1.27;;
17790;SDS011;9019;48.132;-1.210;2023-11-21T04:55:30;4.03;;;1.00;;
17790;SDS011;9019;48.132;-1.210;2023-11-21T04:57:57;3.63;;;0.93;;
17790;SDS011;9019;48.132;-1.210;2023-11-21T05:00:26;4.83;;;0.90;;
17790;SDS011;9019;48.132;-1.210;2023-11-21T05:02:53;5.70;;;1.30;;
17790;SDS011;9019;48.132;-1.210;2023-11-21T05:05:20;5.40;;;1.00;;
17790;SDS011;9019;48.132;-1.210;2023-11-21T05:07:47;2.80;;;0.97;;
17790;SDS011;9019;48.132;-1.210;2023-11-21T05:10:15;3.93;;;1.50;;
17790;SDS011;9019;48.132;-1.210;2023-11-21T05:12:42;4.30;;;1.00;;
17790;SDS011;9019;48.132;-1.210;2023-11-21T05:15:10;3.37;;;0.90;;
17790;SDS011;9019;48.132;-1.210;2023-11-21T05:17:41;7.93;;;1.43;;
17790;SDS011;9019;48.132;-1.210;2023-11-21T05:20:09;5.53;;;0.90;;
17790;SDS011;9019;48.132;-1.210;2023-11-21T05:22:37;6.00;;;1.20;;
17790;SDS011;9019;48.132;-1.210;2023-11-21T05:25:05;3.47;;;0.80;;
17790;SDS011;9019;48.132;-1.210;2023-11-21T05:27:33;4.87;;;0.97;;
17790;SDS011;9019;48.132;-1.210;2023-11-21T05:30:00;4.00;;;1.20;;
17790;SDS011;9019;48.132;-1.210;2023-11-21T05:32:30;7.00;;;1.07;;
17790;SDS011;9019;48.132;-1.210;2023-11-21T05:34:58;5.37;;;1.10;;
17790;SDS011;9019;48.132;-1.210;2023-11-21T05:37:26;6.40;;;1.13;;
17790;SDS011;9019;48.132;-1.210;2023-11-21T05:39:53;4.53;;;1.13;;
17790;SDS011;9019;48.132;-1.210;2023-11-21T05:42:21;4.17;;;0.87;;
17790;SDS011;9019;48.132;-1.210;2023-11-21T05:44:49;4.33;;;0.80;;
17790;SDS011;9019;48.132;-1.210;2023-11-21T05:47:16;5.90;;;1.00;;
17790;SDS011;9019;48.132;-1.210;2023-11-21T05:49:44;5.23;;;0.90;;
17790;SDS011;9019;48.132;-1.210;2023-11-21T05:52:16;2.23;;;0.70;;
17790;SDS011;9019;48.132;-1.210;2023-11-21T05:54:44;7.53;;;1.10;;
17790;SDS011;9019;48.132;-1.210;2023-11-21T05:57:11;3.87;;;0.80;;
17790;SDS011;9019;48.132;-1.210;2023-11-21T05:59:38;6.50;;;1.10;;
17790;SDS011;9019;48.132;-1.210;2023-11-21T06:02:05;3.30;;;1.00;;
17790;SDS011;9019;48.132;-1.210;2023-11-21T06:04:33;6.83;;;1.00;;
17790;SDS011;9019;48.132;-1.210;2023-11-21T06:07:01;9.40;;;1.13;;
17790;SDS011;9019;48.132;-1.210;2023-11-21T06:09:30;3.47;;;0.93;;
17790;SDS011;9019;48.132;-1.210;2023-11-21T06:11:57;4.03;;;0.73;;
17790;SDS011;9019;48.132;-1.210;2023-11-21T06:14:25;5.07;;;1.00;;
17790;SDS011;9019;48.132;-1.210;2023-11-21T06:16:52;2.67;;;0.97;;
17790;SDS011;9019;48.132;-1.210;2023-11-21T06:19:21;4.53;;;1.17;;
17790;SDS011;9019;48.132;-1.210;2023-11-21T06:21:47;8.67;;;1.43;;
17790;SDS011;9019;48.132;-1.210;2023-11-21T06:24:15;4.67;;;1.00;;
17790;SDS011;9019;48.132;-1.210;2023-11-21T06:26:44;3.87;;;1.30;;
17790;SDS011;9019;48.132;-1.210;2023-11-21T06:29:13;4.30;;;1.30;;
17790;SDS011;9019;48.132;-1.210;2023-11-21T06:31:41;4.53;;;1.20;;
17790;SDS011;9019;48.132;-1.210;2023-11-21T06:34:09;4.10;;;1.20;;
17790;SDS011;9019;48.132;-1.210;2023-11-21T06:36:36;4.30;;;1.00;;
17790;SDS011;9019;48.132;-1.210;2023-11-21T06:39:03;5.90;;;0.90;;
17790;SDS011;9019;48.132;-1.210;2023-11-21T06:41:33;6.83;;;1.20;;
17790;SDS011;9019;48.132;-1.210;2023-11-21T06:44:05;3.97;;;0.90;;
17790;SDS011;9019;48.132;-1.210;2023-11-21T06:46:33;4.90;;;0.97;;
17790;SDS011;9019;48.132;-1.210;2023-11-21T06:49:01;5.17;;;0.90;;
17790;SDS011;9019;48.132;-1.210;2023-11-21T06:51:28;3.87;;;1.13;;
17790;SDS011;9019;48.132;-1.210;2023-11-21T06:53:55;4.47;;;1.20;;
17790;SDS011;9019;48.132;-1.210;2023-11-21T06:56:22;2.13;;;0.90;;
17790;SDS011;9019;48.132;-1.210;2023-11-21T06:58:50;3.13;;;1.00;;
17790;SDS011;9019;48.132;-1.210;2023-11-21T07:01:20;4.27;;;1.10;;
17790;SDS011;9019;48.132;-1.210;2023-11-21T07:03:47;5.73;;;1.30;;
17790;SDS011;9019;48.132;-1.210;2023-11-21T07:06:15;5.47;;;1.40;;
17790;SDS011;9019;48.132;-1.210;2023-11-21T07:08:42;4.70;;;1.70;;
17790;SDS011;9019;48.132;-1.210;2023-11-21T07:11:09;5.00;;;2.40;;
17790;SDS011;9019;48.132;-1.210;2023-11-21T07:13:37;5.53;;;2.23;;
17790;SDS011;9019;48.132;-1.210;2023-11-21T07:16:04;6.70;;;2.63;;
17790;SDS011;9019;48.132;-1.210;2023-11-21T07:18:33;7.07;;;3.27;;
17790;SDS011;9019;48.132;-1.210;2023-11-21T07:21:00;3.77;;;2.67;;
17790;SDS011;9019;48.132;-1.210;2023-11-21T07:23:28;3.57;;;1.97;;
17790;SDS011;9019;48.132;-1.210;2023-11-21T07:25:55;4.17;;;1.63;;
17790;SDS011;9019;48.132;-1.210;2023-11-21T07:28:24;6.10;;;1.10;;
17790;SDS011;9019;48.132;-1.210;2023-11-21T07:30:51;7.17;;;1.20;;
17790;SDS011;9019;48.132;-1.210;2023-11-21T07:33:19;4.47;;;1.20;;
17790;SDS011;9019;48.132;-1.210;2023-11-21T07:35:47;3.33;;;1.40;;
17790;SDS011;9019;48.132;-1.210;2023-11-21T07:38:15;4.73;;;1.30;;
17790;SDS011;9019;48.132;-1.210;2023-11-21T07:40:42;3.40;;;1.10;;
17790;SDS011;9019;48.132;-1.210;2023-11-21T07:43:09;4.77;;;1.37;;
17790;SDS011;9019;48.132;-1.210;2023-11-21T07:45:36;5.33;;;1.10;;
17790;SDS011;9019;48.132;-1.210;2023-11-21T07:48:04;4.57;;;1.00;;
17790;SDS011;9019;48.132;-1.210;2023-11-21T07:50:32;4.03;;;1.10;;
17790;SDS011;9019;48.132;-1.210;2023-11-21T07:53:00;3.30;;;1.00;;
17790;SDS011;9019;48.132;-1.210;2023-11-21T07:55:30;3.07;;;1.10;;
17790;SDS011;9019;48.132;-1.210;2023-11-21T07:57:58;5.90;;;0.90;;
17790;SDS011;9019;48.132;-1.210;2023-11-21T08:00:25;5.27;;;0.80;;
17790;SDS011;9019;48.132;-1.210;2023-11-21T08:02:55;2.93;;;0.77;;
17790;SDS011;9019;48.132;-1.210;2023-11-21T08:05:22;6.07;;;0.93;;
17790;SDS011;9019;48.132;-1.210;2023-11-21T08:07:49;1.47;;;0.67;;
17790;SDS011;9019;48.132;-1.210;2023-11-21T08:10:18;4.83;;;0.80;;
17790;SDS011;9019;48.132;-1.210;2023-11-21T08:12:46;2.75;;;0.80;;
17790;SDS011;9019;48.132;-1.210;2023-11-21T08:15:16;3.83;;;0.80;;
17790;SDS011;9019;48.132;-1.210;2023-11-21T08:17:43;2.35;;;0.73;;
17790;SDS011;9019;48.132;-1.210;2023-11-21T08:20:11;2.97;;;0.80;;
17790;SDS011;9019;48.132;-1.210;2023-11-21T08:22:41;2.78;;;1.02;;
17790;SDS011;9019;48.132;-1.210;2023-11-21T08:25:08;4.15;;;1.48;;
17790;SDS011;9019;48.132;-1.210;2023-11-21T08:27:37;2.63;;;1.20;;
17790;SDS011;9019;48.132;-1.210;2023-11-21T08:30:04;3.40;;;1.10;;
17790;SDS011;9019;48.132;-1.210;2023-11-21T08:32:32;2.53;;;0.98;;
17790;SDS011;9019;48.132;-1.210;2023-11-21T08:34:59;3.70;;;1.20;;
17790;SDS011;9019;48.132;-1.210;2023-11-21T08:37:27;4.07;;;1.15;;
17790;SDS011;9019;48.132;-1.210;2023-11-21T08:39:57;3.65;;;0.80;;
17790;SDS011;9019;48.132;-1.210;2023-11-21T08:42:25;2.50;;;0.75;;
17790;SDS011;9019;48.132;-1.210;2023-11-21T08:44:56;5.80;;;1.38;;
17790;SDS011;9019;48.132;-1.210;2023-11-21T08:47:23;3.55;;;1.15;;
17790;SDS011;9019;48.132;-1.210;2023-11-21T08:49:51;5.43;;;1.33;;
17790;SDS011;9019;48.132;-1.210;2023-11-21T08:52:18;3.33;;;1.23;;
17790;SDS011;9019;48.132;-1.210;2023-11-21T08:54:48;3.22;;;1.50;;
17790;SDS011;9019;48.132;-1.210;2023-11-21T08:57:20;2.53;;;1.15;;
17790;SDS011;9019;48.132;-1.210;2023-11-21T08:59:48;3.03;;;1.08;;
17790;SDS011;9019;48.132;-1.210;2023-11-21T09:02:21;5.28;;;1.23;;
17790;SDS011;9019;48.132;-1.210;2023-11-21T09:04:48;4.32;;;1.27;;
17790;SDS011;9019;48.132;-1.210;2023-11-21T09:07:17;4.32;;;0.90;;
17790;SDS011;9019;48.132;-1.210;2023-11-21T09:09:45;4.43;;;1.27;;
17790;SDS011;9019;48.132;-1.210;2023-11-21T09:12:12;3.20;;;1.00;;
17790;SDS011;9019;48.132;-1.210;2023-11-21T09:14:40;4.95;;;1.05;;
17790;SDS011;9019;48.132;-1.210;2023-11-21T09:17:07;2.15;;;0.88;;
17790;SDS011;9019;48.132;-1.210;2023-11-21T09:19:37;3.92;;;1.17;;
17790;SDS011;9019;48.132;-1.210;2023-11-21T09:22:04;5.63;;;1.30;;
17790;SDS011;9019;48.132;-1.210;2023-11-21T09:24:32;3.78;;;1.10;;
17790;SDS011;9019;48.132;-1.210;2023-11-21T09:26:59;3.95;;;1.23;;
17790;SDS011;9019;48.132;-1.210;2023-11-21T09:29:26;3.08;;;1.20;;
17790;SDS011;9019;48.132;-1.210;2023-11-21T09:31:53;4.30;;;1.20;;
17790;SDS011;9019;48.132;-1.210;2023-11-21T09:34:24;4.35;;;1.42;;
17790;SDS011;9019;48.132;-1.210;2023-11-21T09:36:53;3.30;;;1.13;;
17790;SDS011;9019;48.132;-1.210;2023-11-21T09:39:20;4.20;;;1.00;;
17790;SDS011;9019;48.132;-1.210;2023-11-21T09:41:48;3.40;;;0.90;;
17790;SDS011;9019;48.132;-1.210;2023-11-21T09:44:17;4.13;;;0.90;;
17790;SDS011;9019;48.132;-1.210;2023-11-21T09:46:45;3.30;;;1.00;;
17790;SDS011;9019;48.132;-1.210;2023-11-21T09:49:14;2.38;;;0.93;;
17790;SDS011;9019;48.132;-1.210;2023-11-21T09:51:42;3.80;;;1.15;;
17790;SDS011;9019;48.132;-1.210;2023-11-21T09:54:11;4.22;;;1.02;;
17790;SDS011;9019;48.132;-1.210;2023-11-21T09:56:40;5.00;;;1.02;;
17790;SDS011;9019;48.132;-1.210;2023-11-21T09:59:08;5.03;;;0.95;;
17790;SDS011;9019;48.132;-1.210;2023-11-21T10:01:38;3.78;;;0.90;;
17790;SDS011;9019;48.132;-1.210;2023-11-21T10:04:07;4.43;;;1.10;;
17790;SDS011;9019;48.132;-1.210;2023-11-21T10:06:37;5.10;;;1.25;;
17790;SDS011;9019;48.132;-1.210;2023-11-21T10:09:05;4.88;;;1.50;;
17790;SDS011;9019;48.132;-1.210;2023-11-21T10:11:37;2.55;;;1.27;;
17790;SDS011;9019;48.132;-1.210;2023-11-21T10:14:06;5.43;;;1.60;;
17790;SDS011;9019;48.132;-1.210;2023-11-21T10:16:37;3.42;;;1.40;;
17790;SDS011;9019;48.132;-1.210;2023-11-21T10:19:05;3.27;;;1.57;;
17790;SDS011;9019;48.132;-1.210;2023-11-21T10:21:32;2.20;;;1.67;;
17790;SDS011;9019;48.132;-1.210;2023-11-21T10:24:00;3.63;;;1.63;;
17790;SDS011;9019;48.132;-1.210;2023-11-21T10:26:28;3.27;;;1.47;;
17790;SDS011;9019;48.132;-1.210;2023-11-21T10:28:58;2.23;;;1.30;;
17790;SDS011;9019;48.132;-1.210;2023-11-21T10:31:26;3.53;;;1.30;;
17790;SDS011;9019;48.132;-1.210;2023-11-21T10:33:55;4.27;;;1.47;;
17790;SDS011;9019;48.132;-1.210;2023-11-21T10:36:27;3.17;;;1.57;;
17790;SDS011;9019;48.132;-1.210;2023-11-21T10:38:54;5.30;;;1.40;;
17790;SDS011;9019;48.132;-1.210;2023-11-21T10:41:22;3.20;;;1.43;;
17790;SDS011;9019;48.132;-1.210;2023-11-21T10:43:52;4.20;;;1.97;;
17790;SDS011;9019;48.132;-1.210;2023-11-21T10:46:22;2.90;;;2.03;;
17790;SDS011;9019;48.132;-1.210;2023-11-21T10:48:54;2.08;;;1.50;;
17790;SDS011;9019;48.132;-1.210;2023-11-21T10:51:21;4.80;;;1.70;;
17790;SDS011;9019;48.132;-1.210;2023-11-21T10:53:50;2.35;;;1.60;;
17790;SDS011;9019;48.132;-1.210;2023-11-21T10:56:18;4.60;;;1.92;;
17790;SDS011;9019;48.132;-1.210;2023-11-21T10:58:46;3.00;;;1.50;;
17790;SDS011;9019;48.132;-1.210;2023-11-21T11:01:15;2.90;;;1.90;;
17790;SDS011;9019;48.132;-1.210;2023-11-21T11:03:47;3.65;;;2.00;;
17790;SDS011;9019;48.132;-1.210;2023-11-21T11:06:15;4.97;;;2.13;;
17790;SDS011;9019;48.132;-1.210;2023-11-21T11:08:42;4.00;;;2.80;;
17790;SDS011;9019;48.132;-1.210;2023-11-21T11:11:11;4.53;;;2.40;;
17790;SDS011;9019;48.132;-1.210;2023-11-21T11:13:39;3.73;;;1.87;;
17790;SDS011;9019;48.132;-1.210;2023-11-21T11:16:11;3.30;;;2.10;;
17790;SDS011;9019;48.132;-1.210;2023-11-21T11:18:42;5.67;;;2.20;;
17790;SDS011;9019;48.132;-1.210;2023-11-21T11:21:15;4.67;;;2.23;;
17790;SDS011;9019;48.132;-1.210;2023-11-21T11:23:49;3.95;;;2.10;;
17790;SDS011;9019;48.132;-1.210;2023-11-21T11:26:20;4.72;;;2.20;;
17790;SDS011;9019;48.132;-1.210;2023-11-21T11:28:55;4.05;;;1.88;;
17790;SDS011;9019;48.132;-1.210;2023-11-21T11:31:27;2.58;;;1.90;;
17790;SDS011;9019;48.132;-1.210;2023-11-21T11:34:02;3.47;;;2.00;;
17790;SDS011;9019;48.132;-1.210;2023-11-21T11:36:34;4.15;;;2.10;;
17790;SDS011;9019;48.132;-1.210;2023-11-21T11:39:03;5.47;;;1.90;;
17790;SDS011;9019;48.132;-1.210;2023-11-21T11:41:30;3.67;;;2.03;;
17790;SDS011;9019;48.132;-1.210;2023-11-21T11:44:00;3.70;;;2.10;;
17790;SDS011;9019;48.132;-1.210;2023-11-21T11:46:40;5.33;;;1.90;;
17790;SDS011;9019;48.132;-1.210;2023-11-21T11:49:07;2.57;;;1.80;;
17790;SDS011;9019;48.132;-1.210;2023-11-21T11:51:37;1.83;;;1.60;;
17790;SDS011;9019;48.132;-1.210;2023-11-21T11:54:05;3.70;;;1.80;;
17790;SDS011;9019;48.132;-1.210;2023-11-21T11:56:33;2.80;;;2.03;;
17790;SDS011;9019;48.132;-1.210;2023-11-21T11:59:03;3.07;;;2.03;;
17790;SDS011;9019;48.132;-1.210;2023-11-21T12:01:32;3.97;;;2.30;;
17790;SDS011;9019;48.132;-1.210;2023-11-21T12:06:50;3.33;;;2.20;;
17790;SDS011;9019;48.132;-1.210;2023-11-21T12:09:18;3.27;;;2.03;;
17790;SDS011;9019;48.132;-1.210;2023-11-21T12:11:45;6.30;;;3.53;;
17790;SDS011;9019;48.132;-1.210;2023-11-21T12:14:13;16.70;;;8.47;;
17790;SDS011;9019;48.132;-1.210;2023-11-21T12:16:41;9.57;;;6.00;;
17790;SDS011;9019;48.132;-1.210;2023-11-21T12:19:09;7.10;;;4.00;;
17790;SDS011;9019;48.132;-1.210;2023-11-21T12:21:36;4.47;;;2.87;;
17790;SDS011;9019;48.132;-1.210;2023-11-21T12:24:05;8.07;;;3.83;;
17790;SDS011;9019;48.132;-1.210;2023-11-21T12:26:33;4.33;;;3.03;;
17790;SDS011;9019;48.132;-1.210;2023-11-21T12:29:01;3.97;;;2.70;;
17790;SDS011;9019;48.132;-1.210;2023-11-21T12:31:29;5.73;;;3.10;;
17790;SDS011;9019;48.132;-1.210;2023-11-21T12:33:57;4.03;;;2.70;;
17790;SDS011;9019;48.132;-1.210;2023-11-21T12:36:24;4.13;;;2.57;;
17790;SDS011;9019;48.132;-1.210;2023-11-21T12:38:51;4.50;;;2.63;;
17790;SDS011;9019;48.132;-1.210;2023-11-21T12:41:20;3.17;;;1.87;;
17790;SDS011;9019;48.132;-1.210;2023-11-21T12:43:47;3.05;;;2.13;;
17790;SDS011;9019;48.132;-1.210;2023-11-21T12:46:15;3.80;;;2.00;;
17790;SDS011;9019;48.132;-1.210;2023-11-21T12:48:42;2.63;;;1.73;;
17790;SDS011;9019;48.132;-1.210;2023-11-21T12:51:10;4.00;;;2.00;;
17790;SDS011;9019;48.132;-1.210;2023-11-21T12:53:39;3.95;;;1.90;;
17790;SDS011;9019;48.132;-1.210;2023-11-21T12:56:09;3.03;;;1.83;;
17790;SDS011;9019;48.132;-1.210;2023-11-21T12:58:38;4.17;;;1.93;;
17790;SDS011;9019;48.132;-1.210;2023-11-21T13:01:06;4.23;;;2.30;;
17790;SDS011;9019;48.132;-1.210;2023-11-21T13:03:37;3.43;;;1.90;;
17790;SDS011;9019;48.132;-1.210;2023-11-21T13:06:05;3.07;;;2.00;;
17790;SDS011;9019;48.132;-1.210;2023-11-21T13:08:33;2.13;;;1.57;;
17790;SDS011;9019;48.132;-1.210;2023-11-21T13:11:04;3.10;;;1.47;;
17790;SDS011;9019;48.132;-1.210;2023-11-21T13:13:32;2.57;;;1.50;;
17790;SDS011;9019;48.132;-1.210;2023-11-21T13:16:01;6.63;;;1.60;;
17790;SDS011;9019;48.132;-1.210;2023-11-21T13:18:29;2.23;;;1.20;;
17790;SDS011;9019;48.132;-1.210;2023-11-21T13:20:58;1.80;;;0.83;;
17790;SDS011;9019;48.132;-1.210;2023-11-21T13:23:25;1.70;;;0.80;;
17790;SDS011;9019;48.132;-1.210;2023-11-21T13:25:54;1.43;;;0.90;;
17790;SDS011;9019;48.132;-1.210;2023-11-21T13:28:21;2.90;;;1.20;;
17790;SDS011;9019;48.132;-1.210;2023-11-21T13:30:51;2.57;;;1.43;;
17790;SDS011;9019;48.132;-1.210;2023-11-21T13:33:20;3.40;;;1.70;;
17790;SDS011;9019;48.132;-1.210;2023-11-21T13:35:52;2.10;;;1.47;;
17790;SDS011;9019;48.132;-1.210;2023-11-21T13:38:21;3.07;;;1.63;;
17790;SDS011;9019;48.132;-1.210;2023-11-21T13:40:49;2.93;;;1.60;;
17790;SDS011;9019;48.132;-1.210;2023-11-21T13:43:18;5.27;;;1.37;;
17790;SDS011;9019;48.132;-1.210;2023-11-21T13:45:46;4.33;;;1.50;;
17790;SDS011;9019;48.132;-1.210;2023-11-21T13:48:16;2.43;;;1.10;;
17790;SDS011;9019;48.132;-1.210;2023-11-21T13:50:51;2.40;;;1.00;;
17790;SDS011;9019;48.132;-1.210;2023-11-21T13:53:24;1.87;;;0.97;;
17790;SDS011;9019;48.132;-1.210;2023-11-21T13:55:51;2.77;;;1.03;;
17790;SDS011;9019;48.132;-1.210;2023-11-21T13:58:19;4.50;;;1.20;;
17790;SDS011;9019;48.132;-1.210;2023-11-21T14:00:51;1.90;;;0.97;;
17790;SDS011;9019;48.132;-1.210;2023-11-21T14:03:22;1.87;;;1.20;;
17790;SDS011;9019;48.132;-1.210;2023-11-21T14:05:59;2.27;;;1.27;;
17790;SDS011;9019;48.132;-1.210;2023-11-21T14:08:32;5.87;;;1.63;;
17790;SDS011;9019;48.132;-1.210;2023-11-21T14:10:59;14.80;;;2.70;;
17790;SDS011;9019;48.132;-1.210;2023-11-21T14:13:27;6.17;;;1.60;;
17790;SDS011;9019;48.132;-1.210;2023-11-21T14:15:54;3.77;;;1.60;;
17790;SDS011;9019;48.132;-1.210;2023-11-21T14:18:25;2.60;;;1.30;;
17790;SDS011;9019;48.132;-1.210;2023-11-21T14:21:04;3.87;;;1.73;;
17790;SDS011;9019;48.132;-1.210;2023-11-21T14:23:33;2.47;;;1.50;;
17790;SDS011;9019;48.132;-1.210;2023-11-21T14:26:02;3.20;;;1.40;;
17790;SDS011;9019;48.132;-1.210;2023-11-21T14:28:31;1.73;;;1.30;;
17790;SDS011;9019;48.132;-1.210;2023-11-21T14:31:00;2.30;;;1.17;;
17790;SDS011;9019;48.132;-1.210;2023-11-21T14:33:28;3.87;;;1.40;;
17790;SDS011;9019;48.132;-1.210;2023-11-21T14:35:55;2.73;;;1.23;;
17790;SDS011;9019;48.132;-1.210;2023-11-21T14:38:24;2.53;;;1.50;;
17790;SDS011;9019;48.132;-1.210;2023-11-21T14:40:52;1.97;;;1.40;;
17790;SDS011;9019;48.132;-1.210;2023-11-21T14:43:20;11.17;;;2.27;;
17790;SDS011;9019;48.132;-1.210;2023-11-21T14:45:47;3.37;;;1.50;;
17790;SDS011;9019;48.132;-1.210;2023-11-21T14:48:16;3.07;;;1.50;;
17790;SDS011;9019;48.132;-1.210;2023-11-21T14:50:56;4.03;;;1.03;;
17790;SDS011;9019;48.132;-1.210;2023-11-21T14:53:42;3.50;;;1.10;;
17790;SDS011;9019;48.132;-1.210;2023-11-21T14:56:18;2.00;;;0.97;;
17790;SDS011;9019;48.132;-1.210;2023-11-21T14:58:51;2.63;;;1.10;;